createdAt,value
2022-12-28T00:02:53.817Z,3.30
2022-12-28T00:05:56.467Z,2.90
2022-12-28T00:08:59.353Z,3.40
2022-12-28T00:12:01.941Z,2.83
2022-12-28T00:15:06.856Z,2.50
2022-12-28T00:18:09.448Z,2.57
2022-12-28T00:21:12.052Z,2.80
2022-12-28T00:24:19.646Z,2.60
2022-12-28T00:27:22.234Z,2.30
2022-12-28T00:30:26.208Z,2.30
2022-12-28T00:33:28.801Z,2.43
2022-12-28T00:37:10.974Z,2.30
2022-12-28T00:39:54.715Z,2.37
2022-12-28T00:42:57.312Z,2.37
2022-12-28T00:46:01.419Z,2.20
2022-12-28T00:49:04.192Z,2.10
2022-12-28T00:52:06.778Z,1.83
2022-12-28T00:55:10.105Z,2.17
2022-12-28T00:58:12.666Z,2.00
2022-12-28T01:01:18.929Z,1.83
2022-12-28T01:04:21.864Z,1.97
2022-12-28T01:07:24.462Z,2.20
2022-12-28T01:10:27.099Z,2.13
2022-12-28T01:13:29.658Z,1.90
2022-12-28T01:16:35.889Z,1.70
2022-12-28T01:19:38.548Z,2.07
2022-12-28T01:22:41.149Z,1.93
2022-12-28T01:25:43.779Z,2.20
2022-12-28T01:28:46.360Z,1.70
2022-12-28T01:31:50.382Z,1.90
2022-12-28T01:34:52.972Z,2.00
2022-12-28T01:37:57.568Z,1.50
2022-12-28T01:41:00.170Z,1.67
2022-12-28T01:44:42.325Z,1.50
2022-12-28T01:47:47.824Z,1.40
2022-12-28T01:50:51.963Z,1.60
2022-12-28T01:53:56.138Z,1.50
2022-12-28T01:56:59.345Z,2.20
2022-12-28T02:00:06.222Z,1.40
2022-12-28T02:03:14.119Z,1.50
2022-12-28T02:06:16.996Z,1.50
2022-12-28T02:09:24.086Z,1.63
2022-12-28T02:12:26.967Z,1.50
2022-12-28T02:15:29.928Z,1.33
2022-12-28T02:18:33.996Z,1.43
2022-12-28T02:21:47.529Z,1.73
2022-12-28T02:25:13.884Z,2.20
2022-12-28T02:28:40.768Z,1.40
2022-12-28T02:31:53.718Z,1.47
2022-12-28T02:35:04.342Z,1.67
2022-12-28T02:38:15.613Z,1.43
2022-12-28T02:41:22.435Z,1.70
2022-12-28T02:44:42.656Z,1.47
2022-12-28T02:48:05.249Z,1.77
2022-12-28T02:51:18.373Z,1.70
2022-12-28T02:54:56.778Z,1.30
2022-12-28T02:58:17.659Z,1.80
2022-12-28T03:01:36.200Z,1.50
2022-12-28T03:04:56.036Z,1.60
2022-12-28T03:08:19.811Z,1.73
2022-12-28T03:11:34.163Z,1.53
2022-12-28T03:14:43.670Z,1.60
2022-12-28T03:18:03.623Z,1.80
2022-12-28T03:21:29.569Z,1.60
2022-12-28T03:24:52.859Z,1.60
2022-12-28T03:28:14.124Z,1.83
2022-12-28T03:31:22.085Z,1.70
2022-12-28T03:34:25.075Z,1.73
2022-12-28T03:37:33.890Z,1.70
2022-12-28T03:40:48.072Z,1.77
2022-12-28T03:43:54.398Z,1.53
2022-12-28T03:47:01.265Z,1.80
2022-12-28T03:50:04.772Z,1.97
2022-12-28T03:53:09.572Z,1.97
2022-12-28T03:56:14.948Z,1.50
2022-12-28T03:59:18.488Z,1.63
2022-12-28T04:02:21.204Z,1.93
2022-12-28T04:05:24.003Z,1.90
2022-12-28T04:08:28.496Z,1.87
2022-12-28T04:11:31.121Z,1.90
2022-12-28T04:14:33.721Z,2.20
2022-12-28T04:17:36.307Z,1.90
2022-12-28T04:20:38.916Z,1.70
2022-12-28T04:23:43.522Z,2.13
2022-12-28T04:26:46.091Z,1.93
2022-12-28T04:29:48.682Z,1.83
2022-12-28T04:32:51.257Z,2.10
2022-12-28T04:35:54.175Z,2.00
2022-12-28T04:38:59.425Z,2.07
2022-12-28T04:42:02.046Z,2.00
2022-12-28T04:45:05.267Z,1.80
2022-12-28T04:48:07.900Z,2.33
2022-12-28T04:51:12.586Z,2.03
2022-12-28T04:54:16.547Z,2.00
2022-12-28T04:57:19.143Z,1.73
2022-12-28T05:00:21.755Z,1.70
2022-12-28T05:03:24.334Z,2.03
2022-12-28T05:06:27.567Z,1.77
2022-12-28T05:09:31.564Z,1.83
2022-12-28T05:12:34.141Z,2.10
2022-12-28T05:15:38.652Z,2.10
2022-12-28T05:18:41.900Z,2.77
2022-12-28T05:21:44.496Z,2.00
2022-12-28T05:24:48.440Z,2.27
2022-12-28T05:27:51.047Z,1.90
2022-12-28T05:30:54.367Z,2.10
2022-12-28T05:33:57.128Z,2.40
2022-12-28T05:36:59.939Z,2.40
2022-12-28T05:40:04.109Z,2.10
2022-12-28T05:43:06.717Z,2.30
2022-12-28T05:46:11.997Z,2.07
2022-12-28T05:49:14.588Z,2.23
2022-12-28T05:52:17.521Z,2.27
2022-12-28T05:55:21.463Z,2.37
2022-12-28T05:58:24.076Z,2.37
2022-12-28T06:01:30.159Z,2.10
2022-12-28T06:04:32.808Z,2.50
2022-12-28T06:07:35.410Z,2.60
2022-12-28T06:10:39.321Z,2.23
2022-12-28T06:13:42.296Z,2.57
2022-12-28T06:16:45.957Z,2.30
2022-12-28T06:19:48.648Z,2.20
2022-12-28T06:22:51.304Z,2.57
2022-12-28T06:25:55.232Z,2.10
2022-12-28T06:28:58.352Z,2.20
2022-12-28T06:32:01.353Z,2.13
2022-12-28T06:35:04.274Z,2.73
2022-12-28T06:38:06.863Z,2.60
2022-12-28T06:41:14.676Z,2.20
2022-12-28T06:44:17.617Z,2.23
2022-12-28T06:47:20.194Z,2.23
2022-12-28T06:50:22.762Z,2.37
2022-12-28T06:53:25.936Z,2.20
2022-12-28T06:56:31.786Z,2.13
2022-12-28T06:59:34.375Z,2.67
2022-12-28T07:02:37.103Z,2.10
2022-12-28T07:05:39.846Z,2.30
2022-12-28T07:08:42.861Z,2.20
2022-12-28T07:11:46.858Z,2.13
2022-12-28T07:14:49.512Z,1.90
2022-12-28T07:17:52.071Z,2.20
2022-12-28T07:21:00.368Z,1.97
2022-12-28T07:24:04.500Z,2.40
2022-12-28T07:27:08.658Z,2.00
2022-12-28T07:30:12.497Z,2.30
2022-12-28T07:33:15.097Z,2.33
2022-12-28T07:36:19.883Z,2.23
2022-12-28T07:39:22.439Z,1.73
2022-12-28T07:42:26.393Z,2.00
2022-12-28T07:45:28.986Z,2.00
2022-12-28T07:48:32.569Z,2.17
2022-12-28T07:51:36.798Z,1.87
2022-12-28T07:54:39.384Z,1.83
2022-12-28T07:57:43.335Z,1.60
2022-12-28T08:00:45.980Z,2.00
2022-12-28T08:03:49.042Z,1.97
2022-12-28T08:06:51.653Z,1.93
2022-12-28T08:09:54.207Z,2.13
2022-12-28T08:12:59.947Z,1.80
2022-12-28T08:16:02.928Z,2.00
2022-12-28T08:19:06.137Z,1.90
2022-12-28T08:22:08.878Z,1.80
2022-12-28T08:25:11.562Z,2.00
2022-12-28T08:28:15.535Z,1.90
2022-12-28T08:31:20.093Z,2.00
2022-12-28T08:34:26.542Z,1.80
2022-12-28T08:37:29.201Z,2.00
2022-12-28T08:40:31.807Z,1.80
2022-12-28T08:43:36.263Z,2.20
2022-12-28T08:46:40.544Z,2.30
2022-12-28T08:49:44.501Z,2.30
2022-12-28T08:52:47.103Z,2.60
2022-12-28T08:55:49.724Z,2.40
2022-12-28T08:58:53.686Z,2.70
2022-12-28T09:01:56.359Z,2.60
2022-12-28T09:04:58.987Z,2.90
2022-12-28T09:08:01.592Z,2.43
2022-12-28T09:11:05.782Z,3.20
2022-12-28T09:14:14.468Z,3.03
2022-12-28T09:17:21.413Z,3.20
2022-12-28T09:20:24.037Z,4.40
2022-12-28T09:23:26.619Z,3.97
2022-12-28T09:26:31.680Z,3.80
2022-12-28T09:29:35.690Z,5.03
2022-12-28T09:32:38.282Z,4.63
2022-12-28T09:35:40.866Z,4.60
2022-12-28T09:38:43.916Z,5.03
2022-12-28T09:41:50.447Z,4.87
2022-12-28T09:45:00.477Z,5.40
2022-12-28T09:48:08.099Z,5.10
2022-12-28T09:51:10.947Z,5.10
2022-12-28T09:54:13.857Z,4.60
2022-12-28T09:57:19.094Z,4.70
2022-12-28T10:00:25.683Z,5.10
2022-12-28T10:03:35.927Z,4.97
2022-12-28T10:06:40.426Z,4.33
2022-12-28T10:09:43.371Z,4.07
2022-12-28T10:12:46.955Z,4.83
2022-12-28T10:15:51.485Z,4.63
2022-12-28T10:18:54.608Z,4.70
2022-12-28T10:22:01.395Z,4.70
2022-12-28T10:25:11.716Z,4.20
2022-12-28T10:28:17.840Z,4.57
2022-12-28T10:31:33.992Z,5.33
2022-12-28T10:34:37.907Z,4.73
2022-12-28T10:37:45.475Z,4.70
2022-12-28T10:40:59.021Z,4.70
2022-12-28T10:44:41.724Z,4.50
2022-12-28T10:47:45.045Z,4.60
2022-12-28T10:50:52.639Z,4.67
2022-12-28T10:53:56.654Z,5.17
2022-12-28T10:57:00.522Z,4.77
2022-12-28T11:00:20.032Z,5.70
2022-12-28T11:03:28.113Z,4.63
2022-12-28T11:06:31.955Z,4.33
2022-12-28T11:09:36.564Z,4.30
2022-12-28T11:12:43.957Z,4.27
2022-12-28T11:15:46.793Z,4.20
2022-12-28T11:18:51.289Z,4.33
2022-12-28T11:21:54.615Z,4.03
2022-12-28T11:25:00.160Z,4.20
2022-12-28T11:28:06.543Z,4.00
2022-12-28T11:31:15.406Z,4.07
2022-12-28T11:34:24.340Z,4.30
2022-12-28T11:37:27.119Z,3.70
2022-12-28T11:40:52.336Z,4.10
2022-12-28T11:43:56.619Z,3.90
2022-12-28T11:47:07.061Z,4.33
2022-12-28T11:50:42.913Z,4.27
2022-12-28T11:53:55.276Z,4.27
2022-12-28T11:57:00.951Z,4.13
2022-12-28T12:00:48.197Z,4.27
2022-12-28T12:04:24.776Z,4.30
2022-12-28T12:07:48.072Z,3.93
2022-12-28T12:11:11.075Z,3.70
2022-12-28T12:14:14.759Z,3.37
2022-12-28T12:17:25.225Z,3.20
2022-12-28T12:20:52.876Z,2.93
2022-12-28T12:23:58.552Z,3.03
2022-12-28T12:27:11.919Z,2.90
2022-12-28T12:30:17.554Z,3.27
2022-12-28T12:33:26.485Z,2.90
2022-12-28T12:37:00.054Z,2.80
2022-12-28T12:40:40.160Z,2.83
2022-12-28T12:43:56.252Z,3.00
2022-12-28T12:47:28.597Z,3.30
2022-12-28T12:50:55.143Z,3.37
2022-12-28T12:54:16.481Z,3.40
2022-12-28T12:57:26.812Z,3.13
2022-12-28T13:00:39.117Z,3.93
2022-12-28T13:03:45.905Z,4.20
2022-12-28T13:06:50.039Z,4.43
2022-12-28T13:09:55.561Z,3.90
2022-12-28T13:13:01.948Z,4.30
2022-12-28T13:16:09.240Z,4.70
2022-12-28T13:19:19.595Z,5.37
2022-12-28T13:22:29.490Z,5.27
2022-12-28T13:25:33.829Z,5.03
2022-12-28T13:28:38.659Z,5.50
2022-12-28T13:31:49.411Z,5.93
2022-12-28T13:34:51.993Z,5.87
2022-12-28T13:38:06.681Z,5.70
2022-12-28T13:41:19.953Z,5.77
2022-12-28T13:44:39.943Z,5.30
2022-12-28T13:47:47.247Z,5.53
2022-12-28T13:50:52.391Z,4.73
2022-12-28T13:53:58.594Z,5.70
2022-12-28T13:57:36.017Z,5.77
2022-12-28T14:00:25.350Z,5.93
2022-12-28T14:03:33.304Z,6.00
2022-12-28T14:06:38.780Z,6.80
2022-12-28T14:09:41.858Z,6.10
2022-12-28T14:12:46.199Z,6.53
2022-12-28T14:15:50.952Z,6.17
2022-12-28T14:18:54.049Z,6.07
2022-12-28T14:21:56.766Z,5.53
2022-12-28T14:25:05.522Z,5.57
2022-12-28T14:28:08.235Z,6.13
2022-12-28T14:31:14.174Z,5.80
2022-12-28T14:34:24.078Z,5.47
2022-12-28T14:37:29.524Z,4.90
2022-12-28T14:40:34.111Z,4.97
2022-12-28T14:43:37.837Z,4.97
2022-12-28T14:46:42.790Z,4.70
2022-12-28T14:49:45.707Z,4.17
2022-12-28T14:52:50.520Z,11.37
2022-12-28T14:56:12.021Z,3.40
2022-12-28T14:59:23.263Z,3.90
2022-12-28T15:02:41.357Z,5.10
2022-12-28T15:05:45.746Z,3.40
2022-12-28T15:08:50.030Z,3.40
2022-12-28T15:12:09.801Z,3.50
2022-12-28T15:15:13.145Z,3.47
2022-12-28T15:18:17.404Z,4.17
2022-12-28T15:21:21.948Z,3.53
2022-12-28T15:24:28.613Z,3.47
2022-12-28T15:27:35.973Z,3.70
2022-12-28T15:30:41.675Z,3.83
2022-12-28T15:33:46.219Z,3.83
2022-12-28T15:36:48.848Z,4.13
2022-12-28T15:39:51.530Z,4.00
2022-12-28T15:42:54.164Z,3.40
2022-12-28T15:45:57.951Z,3.30
2022-12-28T15:49:03.119Z,3.40
2022-12-28T15:52:06.119Z,3.10
2022-12-28T15:55:09.444Z,3.40
2022-12-28T15:58:12.043Z,3.50
2022-12-28T16:01:14.742Z,3.57
2022-12-28T16:04:18.843Z,3.93
2022-12-28T16:07:21.504Z,3.70
2022-12-28T16:10:24.107Z,3.47
2022-12-28T16:13:26.674Z,3.53
2022-12-28T16:16:31.461Z,3.00
2022-12-28T16:19:35.514Z,3.67
2022-12-28T16:22:38.102Z,4.00
2022-12-28T16:25:40.716Z,4.13
2022-12-28T16:28:43.324Z,4.23
2022-12-28T16:31:46.052Z,4.73
2022-12-28T16:34:50.212Z,3.90
2022-12-28T16:37:53.293Z,4.27
2022-12-28T16:40:57.142Z,4.77
2022-12-28T16:44:02.870Z,5.60
2022-12-28T16:47:05.742Z,4.57
2022-12-28T16:50:10.698Z,4.90
2022-12-28T16:53:13.298Z,4.03
2022-12-28T16:56:15.863Z,3.87
2022-12-28T16:59:20.414Z,3.33
2022-12-28T17:02:23.134Z,3.10
2022-12-28T17:05:27.241Z,3.17
2022-12-28T17:08:30.452Z,3.27
2022-12-28T17:11:33.245Z,3.77
2022-12-28T17:14:37.717Z,2.97
2022-12-28T17:17:40.784Z,3.23
2022-12-28T17:20:46.027Z,3.13
2022-12-28T17:23:48.605Z,3.30
2022-12-28T17:26:51.194Z,3.57
2022-12-28T17:29:53.797Z,3.60
2022-12-28T17:32:56.765Z,3.63
2022-12-28T17:36:01.752Z,3.90
2022-12-28T17:39:04.612Z,4.80
2022-12-28T17:42:07.940Z,4.40
2022-12-28T17:45:12.084Z,3.93
2022-12-28T17:48:15.166Z,4.97
2022-12-28T17:51:19.483Z,5.20
2022-12-28T17:54:22.094Z,4.93
2022-12-28T17:57:24.762Z,5.40
2022-12-28T18:00:27.348Z,4.97
2022-12-28T18:03:33.710Z,4.80
2022-12-28T18:06:38.390Z,4.07
2022-12-28T18:09:40.959Z,4.07
2022-12-28T18:12:43.596Z,4.07
2022-12-28T18:15:47.674Z,4.40
2022-12-28T18:18:50.405Z,4.30
2022-12-28T18:21:54.364Z,4.70
2022-12-28T18:24:56.961Z,5.17
2022-12-28T18:27:59.571Z,4.70
2022-12-28T18:31:03.170Z,4.47
2022-12-28T18:34:07.331Z,4.27
2022-12-28T18:37:11.406Z,4.50
2022-12-28T18:40:13.999Z,4.27
2022-12-28T18:43:16.588Z,4.10
2022-12-28T18:46:19.939Z,4.20
2022-12-28T18:49:22.673Z,3.70
2022-12-28T18:52:26.653Z,4.33
2022-12-28T18:55:29.218Z,4.03
2022-12-28T18:58:33.742Z,3.70
2022-12-28T19:05:01.565Z,4.60
2022-12-28T19:08:06.138Z,3.90
2022-12-28T19:11:09.834Z,6.40
2022-12-28T19:14:14.418Z,4.60
2022-12-28T19:17:16.969Z,7.30
2022-12-28T19:20:20.121Z,3.70
2022-12-28T19:23:24.259Z,3.20
2022-12-28T19:26:27.216Z,2.80
2022-12-28T19:29:31.232Z,2.50
2022-12-28T19:32:33.817Z,2.60
2022-12-28T19:35:36.362Z,2.40
2022-12-28T19:38:40.296Z,2.27
2022-12-28T19:41:42.866Z,2.07
2022-12-28T19:44:45.442Z,2.17
2022-12-28T19:47:48.020Z,2.13
2022-12-28T19:50:50.676Z,2.40
2022-12-28T19:53:55.259Z,2.23
2022-12-28T19:56:57.861Z,2.30
2022-12-28T20:00:00.451Z,2.47
2022-12-28T20:03:03.186Z,2.27
2022-12-28T20:06:07.480Z,2.30
2022-12-28T20:09:12.503Z,2.50
2022-12-28T20:12:15.077Z,2.13
2022-12-28T20:15:19.603Z,2.23
2022-12-28T20:18:22.402Z,2.17
2022-12-28T20:21:26.583Z,3.03
2022-12-28T20:24:30.587Z,2.00
2022-12-28T20:27:33.164Z,2.00
2022-12-28T20:30:35.770Z,2.17
2022-12-28T20:33:38.630Z,2.50
2022-12-28T20:36:41.229Z,2.30
2022-12-28T20:39:45.184Z,2.00
2022-12-28T20:43:07.552Z,2.20
2022-12-28T20:46:12.025Z,2.33
2022-12-28T20:49:14.752Z,1.93
2022-12-28T20:52:17.515Z,2.73
2022-12-28T20:55:21.781Z,2.00
2022-12-28T20:58:24.353Z,2.10
2022-12-28T21:01:27.075Z,2.50
2022-12-28T21:04:29.820Z,2.57
2022-12-28T21:07:32.487Z,3.20
2022-12-28T21:10:36.417Z,2.70
2022-12-28T21:13:43.916Z,2.50
2022-12-28T21:16:47.428Z,3.10
2022-12-28T21:19:50.074Z,2.40
2022-12-28T21:22:52.703Z,2.40
2022-12-28T21:26:02.150Z,2.30
2022-12-28T21:29:04.744Z,2.47
2022-12-28T21:32:07.353Z,1.93
2022-12-28T21:35:10.410Z,2.10
2022-12-28T21:38:12.982Z,2.40
2022-12-28T21:41:39.248Z,2.17
2022-12-28T21:44:41.853Z,2.60
2022-12-28T21:47:44.473Z,2.30
2022-12-28T21:50:47.054Z,2.03
2022-12-28T21:53:49.651Z,2.13
2022-12-28T21:56:56.242Z,2.40
2022-12-28T22:00:18.829Z,2.63
2022-12-28T22:03:38.995Z,2.17
2022-12-28T22:06:41.706Z,2.20
2022-12-28T22:10:02.188Z,2.70
2022-12-28T22:13:06.111Z,2.73
2022-12-28T22:16:08.821Z,2.50
2022-12-28T22:19:11.475Z,2.30
2022-12-28T22:22:14.276Z,2.40
2022-12-28T22:25:17.516Z,2.50
2022-12-28T22:28:21.444Z,2.40
2022-12-28T22:31:24.076Z,2.67
2022-12-28T22:34:26.656Z,3.50
2022-12-28T22:37:29.244Z,7.40
2022-12-28T22:40:31.856Z,3.70
2022-12-28T22:43:35.838Z,2.53
2022-12-28T22:46:38.462Z,2.40
2022-12-28T22:49:41.051Z,2.53
2022-12-28T22:52:44.075Z,2.47
2022-12-28T22:55:46.641Z,2.53
2022-12-28T22:58:50.598Z,2.77
2022-12-28T23:01:54.642Z,2.60
2022-12-28T23:04:57.425Z,2.97
2022-12-28T23:08:00.050Z,2.53
2022-12-28T23:11:05.046Z,2.90
2022-12-28T23:14:29.930Z,2.50
2022-12-28T23:17:32.534Z,2.70
2022-12-28T23:20:53.684Z,2.73
2022-12-28T23:24:13.829Z,2.83
2022-12-28T23:27:22.323Z,3.00
2022-12-28T23:30:26.431Z,2.60
2022-12-28T23:33:29.055Z,2.70
2022-12-28T23:36:33.429Z,2.70
2022-12-28T23:39:36.046Z,2.70
2022-12-28T23:42:38.915Z,2.40
2022-12-28T23:45:42.832Z,2.20
2022-12-28T23:48:45.435Z,2.63
2022-12-28T23:51:48.511Z,2.63
2022-12-28T23:54:51.328Z,2.87
2022-12-28T23:57:53.913Z,2.50
